sensor_id;sensor_type;location;lat;lon;timestamp;pressure;altitude;pressure_sealevel;temperature;humidity
75933;BME280;64803;52.356;5.310;2022-12-05T00:01:27;102293.16;;;3.43;96.14
75933;BME280;64803;52.356;5.310;2022-12-05T00:03:55;102292.31;;;3.42;95.48
75933;BME280;64803;52.356;5.310;2022-12-05T00:06:23;102292.97;;;3.46;95.01
75933;BME280;64803;52.356;5.310;2022-12-05T00:08:49;102290.09;;;3.49;94.95
75933;BME280;64803;52.356;5.310;2022-12-05T00:11:18;102281.88;;;3.54;94.78
75933;BME280;64803;52.356;5.310;2022-12-05T00:13:45;102280.91;;;3.55;95.33
75933;BME280;64803;52.356;5.310;2022-12-05T00:16:13;102287.94;;;3.56;95.22
75933;BME280;64803;52.356;5.310;2022-12-05T00:18:39;102288.66;;;3.58;94.99
75933;BME280;64803;52.356;5.310;2022-12-05T00:21:07;102293.97;;;3.58;95.10
75933;BME280;64803;52.356;5.310;2022-12-05T00:23:36;102294.94;;;3.57;95.90
75933;BME280;64803;52.356;5.310;2022-12-05T00:26:03;102276.72;;;3.51;95.86
75933;BME280;64803;52.356;5.310;2022-12-05T00:28:31;102287.84;;;3.57;95.11
75933;BME280;64803;52.356;5.310;2022-12-05T00:31:04;102280.16;;;3.53;94.81
75933;BME280;64803;52.356;5.310;2022-12-05T00:33:31;102291.06;;;3.62;95.49
75933;BME280;64803;52.356;5.310;2022-12-05T00:36:05;102284.31;;;3.57;95.74
75933;BME280;64803;52.356;5.310;2022-12-05T00:38:31;102285.47;;;3.53;95.71
75933;BME280;64803;52.356;5.310;2022-12-05T00:41:05;102272.69;;;3.45;95.42
75933;BME280;64803;52.356;5.310;2022-12-05T00:43:32;102298.25;;;3.60;95.20
75933;BME280;64803;52.356;5.310;2022-12-05T00:46:05;102297.22;;;3.63;96.16
75933;BME280;64803;52.356;5.310;2022-12-05T00:48:32;102298.72;;;3.67;95.43
75933;BME280;64803;52.356;5.310;2022-12-05T00:51:00;102291.91;;;3.63;95.12
75933;BME280;64803;52.356;5.310;2022-12-05T00:53:27;102293.19;;;3.70;95.70
75933;BME280;64803;52.356;5.310;2022-12-05T00:55:52;102295.28;;;3.65;95.91
75933;BME280;64803;52.356;5.310;2022-12-05T00:58:18;102298.72;;;3.67;95.88
75933;BME280;64803;52.356;5.310;2022-12-05T01:00:44;102293.28;;;3.68;96.31
75933;BME280;64803;52.356;5.310;2022-12-05T01:03:10;102302.31;;;3.66;96.84
75933;BME280;64803;52.356;5.310;2022-12-05T01:05:36;102294.38;;;3.66;96.53
75933;BME280;64803;52.356;5.310;2022-12-05T01:08:02;102291.50;;;3.69;96.88
75933;BME280;64803;52.356;5.310;2022-12-05T01:10:28;102295.13;;;3.68;96.86
75933;BME280;64803;52.356;5.310;2022-12-05T01:12:54;102291.72;;;3.66;97.19
75933;BME280;64803;52.356;5.310;2022-12-05T01:15:20;102302.88;;;3.71;97.49
75933;BME280;64803;52.356;5.310;2022-12-05T01:17:46;102297.78;;;3.68;97.56
75933;BME280;64803;52.356;5.310;2022-12-05T01:20:12;102276.34;;;3.57;97.12
75933;BME280;64803;52.356;5.310;2022-12-05T01:22:38;102297.84;;;3.66;97.77
75933;BME280;64803;52.356;5.310;2022-12-05T01:25:05;102297.78;;;3.68;97.68
75933;BME280;64803;52.356;5.310;2022-12-05T01:27:31;102296.16;;;3.65;98.18
75933;BME280;64803;52.356;5.310;2022-12-05T01:29:57;102288.28;;;3.64;98.32
75933;BME280;64803;52.356;5.310;2022-12-05T01:32:23;102304.03;;;3.67;97.77
75933;BME280;64803;52.356;5.310;2022-12-05T01:34:49;102251.94;;;3.37;98.73
75933;BME280;64803;52.356;5.310;2022-12-05T01:37:15;102306.88;;;3.64;99.29
75933;BME280;64803;52.356;5.310;2022-12-05T01:39:41;102298.06;;;3.63;99.08
75933;BME280;64803;52.356;5.310;2022-12-05T01:42:07;102310.41;;;3.64;98.88
75933;BME280;64803;52.356;5.310;2022-12-05T01:46:59;102316.75;;;3.62;99.12
75933;BME280;64803;52.356;5.310;2022-12-05T01:49:31;102307.66;;;3.66;98.49
75933;BME280;64803;52.356;5.310;2022-12-05T01:52:05;102309.13;;;3.70;98.23
75933;BME280;64803;52.356;5.310;2022-12-05T01:54:34;102311.78;;;3.70;98.23
75933;BME280;64803;52.356;5.310;2022-12-05T01:57:03;102303.81;;;3.70;97.78
75933;BME280;64803;52.356;5.310;2022-12-05T01:59:32;102305.53;;;3.71;97.80
75933;BME280;64803;52.356;5.310;2022-12-05T02:01:59;102236.59;;;3.28;98.13
75933;BME280;64803;52.356;5.310;2022-12-05T02:04:25;102303.75;;;3.71;98.75
75933;BME280;64803;52.356;5.310;2022-12-05T02:06:53;102306.31;;;3.73;98.31
75933;BME280;64803;52.356;5.310;2022-12-05T02:09:19;102303.44;;;3.76;97.40
75933;BME280;64803;52.356;5.310;2022-12-05T02:11:51;102309.59;;;3.76;97.61
75933;BME280;64803;52.356;5.310;2022-12-05T02:14:30;102308.00;;;3.74;98.15
75933;BME280;64803;52.356;5.310;2022-12-05T02:17:09;102309.50;;;3.78;97.42
75933;BME280;64803;52.356;5.310;2022-12-05T02:20:02;102302.47;;;3.77;98.50
75933;BME280;64803;52.356;5.310;2022-12-05T02:31:06;102300.47;;;3.80;97.74
75933;BME280;64803;52.356;5.310;2022-12-05T02:33:55;102304.94;;;3.80;98.04
75933;BME280;64803;52.356;5.310;2022-12-05T02:39:40;102292.44;;;3.82;97.82
75933;BME280;64803;52.356;5.310;2022-12-05T02:42:09;102296.56;;;3.86;96.79
75933;BME280;64803;52.356;5.310;2022-12-05T02:44:45;102300.75;;;3.90;96.89
75933;BME280;64803;52.356;5.310;2022-12-05T02:47:17;102299.59;;;3.94;96.56
75933;BME280;64803;52.356;5.310;2022-12-05T02:49:44;102306.50;;;3.96;96.11
75933;BME280;64803;52.356;5.310;2022-12-05T02:52:13;102295.22;;;3.93;96.47
75933;BME280;64803;52.356;5.310;2022-12-05T02:54:42;102294.94;;;3.97;95.97
75933;BME280;64803;52.356;5.310;2022-12-05T02:57:10;102293.09;;;3.98;95.89
75933;BME280;64803;52.356;5.310;2022-12-05T02:59:37;102295.47;;;4.02;95.81
75933;BME280;64803;52.356;5.310;2022-12-05T03:02:04;102288.75;;;3.97;95.96
75933;BME280;64803;52.356;5.310;2022-12-05T03:04:32;102272.66;;;3.86;96.24
75933;BME280;64803;52.356;5.310;2022-12-05T03:07:09;102291.22;;;4.00;96.23
75933;BME280;64803;52.356;5.310;2022-12-05T03:09:41;102294.06;;;3.97;96.76
75933;BME280;64803;52.356;5.310;2022-12-05T03:12:12;102296.63;;;3.98;97.51
75933;BME280;64803;52.356;5.310;2022-12-05T03:14:43;102296.31;;;4.03;96.19
75933;BME280;64803;52.356;5.310;2022-12-05T03:17:17;102215.28;;;3.57;96.46
75933;BME280;64803;52.356;5.310;2022-12-05T03:20:14;102298.03;;;4.04;96.42
75933;BME280;64803;52.356;5.310;2022-12-05T03:22:48;102278.34;;;3.94;96.75
75933;BME280;64803;52.356;5.310;2022-12-05T03:25:21;102304.88;;;4.08;95.92
75933;BME280;64803;52.356;5.310;2022-12-05T03:28:01;102303.78;;;4.10;97.15
75933;BME280;64803;52.356;5.310;2022-12-05T03:30:29;102308.34;;;4.08;96.56
75933;BME280;64803;52.356;5.310;2022-12-05T03:33:18;102300.38;;;4.08;96.51
75933;BME280;64803;52.356;5.310;2022-12-05T03:36:01;102313.19;;;4.16;96.61
75933;BME280;64803;52.356;5.310;2022-12-05T03:38:39;102316.81;;;4.15;96.75
75933;BME280;64803;52.356;5.310;2022-12-05T03:41:22;102312.22;;;4.17;96.73
75933;BME280;64803;52.356;5.310;2022-12-05T03:44:00;102316.47;;;4.19;96.63
75933;BME280;64803;52.356;5.310;2022-12-05T03:46:52;102318.09;;;4.22;96.42
75933;BME280;64803;52.356;5.310;2022-12-05T03:49:31;102316.72;;;4.29;96.36
75933;BME280;64803;52.356;5.310;2022-12-05T03:52:09;102318.44;;;4.30;96.86
75933;BME280;64803;52.356;5.310;2022-12-05T03:54:40;102322.78;;;4.31;96.76
75933;BME280;64803;52.356;5.310;2022-12-05T03:57:16;102315.56;;;4.33;96.35
75933;BME280;64803;52.356;5.310;2022-12-05T03:59:46;102316.63;;;4.30;97.10
75933;BME280;64803;52.356;5.310;2022-12-05T04:02:38;102323.66;;;4.31;97.06
75933;BME280;64803;52.356;5.310;2022-12-05T04:05:26;102319.19;;;4.32;97.40
75933;BME280;64803;52.356;5.310;2022-12-05T04:08:25;102301.94;;;4.25;97.41
75933;BME280;64803;52.356;5.310;2022-12-05T04:10:57;102326.19;;;4.33;97.47
75933;BME280;64803;52.356;5.310;2022-12-05T04:13:41;102319.38;;;4.29;97.86
75933;BME280;64803;52.356;5.310;2022-12-05T04:16:21;102324.69;;;4.29;98.00
75933;BME280;64803;52.356;5.310;2022-12-05T04:21:47;102320.00;;;4.32;98.27
75933;BME280;64803;52.356;5.310;2022-12-05T04:24:18;102300.44;;;4.21;98.74
75933;BME280;64803;52.356;5.310;2022-12-05T04:27:28;102322.59;;;4.34;98.83
75933;BME280;64803;52.356;5.310;2022-12-05T04:35:49;102321.13;;;4.42;98.65
75933;BME280;64803;52.356;5.310;2022-12-05T04:38:23;102280.88;;;4.22;98.69
75933;BME280;64803;52.356;5.310;2022-12-05T04:41:00;102310.50;;;4.42;98.34
75933;BME280;64803;52.356;5.310;2022-12-05T04:43:29;102309.63;;;4.42;98.53
75933;BME280;64803;52.356;5.310;2022-12-05T04:45:58;102313.69;;;4.47;98.81
75933;BME280;64803;52.356;5.310;2022-12-05T04:48:26;102318.78;;;4.50;98.75
75933;BME280;64803;52.356;5.310;2022-12-05T04:50:54;102314.22;;;4.52;98.25
75933;BME280;64803;52.356;5.310;2022-12-05T04:53:23;102300.19;;;4.50;98.69
75933;BME280;64803;52.356;5.310;2022-12-05T04:55:53;102298.50;;;4.49;98.69
75933;BME280;64803;52.356;5.310;2022-12-05T04:58:23;102306.16;;;4.54;98.64
75933;BME280;64803;52.356;5.310;2022-12-05T05:01:02;102295.94;;;4.48;98.29
75933;BME280;64803;52.356;5.310;2022-12-05T05:03:32;102307.84;;;4.55;98.71
75933;BME280;64803;52.356;5.310;2022-12-05T05:06:01;102238.53;;;4.19;98.04
75933;BME280;64803;52.356;5.310;2022-12-05T05:08:28;102314.56;;;4.60;98.45
75933;BME280;64803;52.356;5.310;2022-12-05T05:13:26;102313.09;;;4.56;98.65
75933;BME280;64803;52.356;5.310;2022-12-05T05:15:52;102317.22;;;4.60;98.91
75933;BME280;64803;52.356;5.310;2022-12-05T05:18:18;102317.09;;;4.62;98.63
75933;BME280;64803;52.356;5.310;2022-12-05T05:20:44;102317.84;;;4.64;98.32
75933;BME280;64803;52.356;5.310;2022-12-05T05:23:10;102319.59;;;4.65;98.59
75933;BME280;64803;52.356;5.310;2022-12-05T05:25:36;102303.47;;;4.54;98.82
75933;BME280;64803;52.356;5.310;2022-12-05T05:28:02;102316.28;;;4.62;98.99
75933;BME280;64803;52.356;5.310;2022-12-05T05:30:28;102320.41;;;4.66;98.73
75933;BME280;64803;52.356;5.310;2022-12-05T05:32:54;102314.03;;;4.68;98.46
75933;BME280;64803;52.356;5.310;2022-12-05T05:35:20;102323.31;;;4.75;98.20
75933;BME280;64803;52.356;5.310;2022-12-05T05:37:46;102327.59;;;4.78;98.26
75933;BME280;64803;52.356;5.310;2022-12-05T05:40:13;102328.22;;;4.81;97.57
75933;BME280;64803;52.356;5.310;2022-12-05T05:42:44;102334.59;;;4.79;98.11
75933;BME280;64803;52.356;5.310;2022-12-05T05:45:11;102328.84;;;4.85;98.10
75933;BME280;64803;52.356;5.310;2022-12-05T05:47:37;102328.13;;;4.83;98.06
75933;BME280;64803;52.356;5.310;2022-12-05T05:50:04;102328.00;;;4.84;97.94
75933;BME280;64803;52.356;5.310;2022-12-05T05:52:34;102328.00;;;4.84;98.12
75933;BME280;64803;52.356;5.310;2022-12-05T05:55:03;102320.13;;;4.83;98.07
75933;BME280;64803;52.356;5.310;2022-12-05T05:57:30;102334.16;;;4.85;97.91
75933;BME280;64803;52.356;5.310;2022-12-05T05:59:55;102334.16;;;4.85;98.88
75933;BME280;64803;52.356;5.310;2022-12-05T06:02:22;102330.78;;;4.83;98.42
75933;BME280;64803;52.356;5.310;2022-12-05T06:04:48;102329.06;;;4.82;98.84
75933;BME280;64803;52.356;5.310;2022-12-05T06:07:14;102249.19;;;4.31;98.85
75933;BME280;64803;52.356;5.310;2022-12-05T06:09:40;102315.66;;;4.71;98.82
75933;BME280;64803;52.356;5.310;2022-12-05T06:12:06;102328.22;;;4.81;99.26
75933;BME280;64803;52.356;5.310;2022-12-05T06:14:32;102333.56;;;4.81;99.46
75933;BME280;64803;52.356;5.310;2022-12-05T06:16:58;102328.22;;;4.81;99.69
75933;BME280;64803;52.356;5.310;2022-12-05T06:19:24;102329.16;;;4.80;99.96
75933;BME280;64803;52.356;5.310;2022-12-05T06:21:50;102338.00;;;4.81;99.96
75933;BME280;64803;52.356;5.310;2022-12-05T06:24:16;102330.91;;;4.81;100.00
75933;BME280;64803;52.356;5.310;2022-12-05T06:26:42;102338.88;;;4.81;100.00
75933;BME280;64803;52.356;5.310;2022-12-05T06:29:09;102256.84;;;4.36;100.00
75933;BME280;64803;52.356;5.310;2022-12-05T06:31:35;102331.81;;;4.80;100.00
75933;BME280;64803;52.356;5.310;2022-12-05T06:34:02;102344.81;;;4.85;100.00
75933;BME280;64803;52.356;5.310;2022-12-05T06:36:29;102287.75;;;4.51;100.00
75933;BME280;64803;52.356;5.310;2022-12-05T06:38:56;102343.97;;;4.84;100.00
75933;BME280;64803;52.356;5.310;2022-12-05T06:41:22;102342.06;;;4.86;100.00
75933;BME280;64803;52.356;5.310;2022-12-05T06:43:53;102345.44;;;4.88;100.00
75933;BME280;64803;52.356;5.310;2022-12-05T06:46:20;102345.25;;;4.91;100.00
75933;BME280;64803;52.356;5.310;2022-12-05T06:48:46;102336.53;;;4.89;100.00
75933;BME280;64803;52.356;5.310;2022-12-05T06:51:14;102346.94;;;4.92;100.00
75933;BME280;64803;52.356;5.310;2022-12-05T06:53:41;102336.84;;;4.97;99.29
75933;BME280;64803;52.356;5.310;2022-12-05T06:56:10;102343.66;;;5.01;99.35
75933;BME280;64803;52.356;5.310;2022-12-05T06:58:36;102343.78;;;5.00;99.50
75933;BME280;64803;52.356;5.310;2022-12-05T07:01:02;102341.41;;;4.95;99.50
75933;BME280;64803;52.356;5.310;2022-12-05T07:03:48;102344.41;;;5.03;98.63
75933;BME280;64803;52.356;5.310;2022-12-05T07:06:14;102348.03;;;5.02;98.87
75933;BME280;64803;52.356;5.310;2022-12-05T07:08:41;102360.16;;;5.06;99.12
75933;BME280;64803;52.356;5.310;2022-12-05T07:11:07;102350.59;;;5.04;98.62
75933;BME280;64803;52.356;5.310;2022-12-05T07:13:33;102352.06;;;5.08;98.98
75933;BME280;64803;52.356;5.310;2022-12-05T07:15:59;102361.66;;;5.10;98.74
75933;BME280;64803;52.356;5.310;2022-12-05T07:18:26;102365.28;;;5.09;98.24
75933;BME280;64803;52.356;5.310;2022-12-05T07:21:00;102363.47;;;5.10;98.26
75933;BME280;64803;52.356;5.310;2022-12-05T07:23:26;102346.09;;;5.04;98.40
75933;BME280;64803;52.356;5.310;2022-12-05T07:25:53;102364.34;;;5.10;98.54
75933;BME280;64803;52.356;5.310;2022-12-05T07:28:19;102367.00;;;5.10;99.11
75933;BME280;64803;52.356;5.310;2022-12-05T07:30:45;102294.66;;;4.66;98.33
75933;BME280;64803;52.356;5.310;2022-12-05T07:33:11;102374.88;;;5.12;98.75
75933;BME280;64803;52.356;5.310;2022-12-05T07:35:37;102376.78;;;5.10;99.02
75933;BME280;64803;52.356;5.310;2022-12-05T07:38:03;102368.16;;;5.06;99.29
75933;BME280;64803;52.356;5.310;2022-12-05T07:40:29;102372.97;;;5.14;98.86
75933;BME280;64803;52.356;5.310;2022-12-05T07:42:55;102373.81;;;5.14;98.92
75933;BME280;64803;52.356;5.310;2022-12-05T07:45:21;102370.41;;;5.12;99.25
75933;BME280;64803;52.356;5.310;2022-12-05T07:47:47;102367.75;;;5.12;99.31
75933;BME280;64803;52.356;5.310;2022-12-05T07:50:13;102368.69;;;5.11;98.49
75933;BME280;64803;52.356;5.310;2022-12-05T07:52:40;102377.09;;;5.18;98.97
75933;BME280;64803;52.356;5.310;2022-12-05T07:55:07;102367.63;;;5.14;98.63
75933;BME280;64803;52.356;5.310;2022-12-05T07:57:33;102351.13;;;5.09;99.11
75933;BME280;64803;52.356;5.310;2022-12-05T07:59:59;102384.69;;;5.24;98.84
75933;BME280;64803;52.356;5.310;2022-12-05T08:02:25;102381.91;;;5.25;98.75
75933;BME280;64803;52.356;5.310;2022-12-05T08:04:51;102380.41;;;5.21;98.99
75933;BME280;64803;52.356;5.310;2022-12-05T08:07:17;102376.81;;;5.22;98.74
75933;BME280;64803;52.356;5.310;2022-12-05T08:09:43;102379.47;;;5.22;99.12
75933;BME280;64803;52.356;5.310;2022-12-05T08:12:09;102385.72;;;5.21;98.53
75933;BME280;64803;52.356;5.310;2022-12-05T08:14:35;102384.03;;;5.20;98.64
75933;BME280;64803;52.356;5.310;2022-12-05T08:17:01;102388.31;;;5.23;98.51
75933;BME280;64803;52.356;5.310;2022-12-05T08:19:27;102392.56;;;5.25;98.61
75933;BME280;64803;52.356;5.310;2022-12-05T08:21:53;102396.19;;;5.24;98.79
75933;BME280;64803;52.356;5.310;2022-12-05T08:24:19;102379.69;;;5.19;98.93
75933;BME280;64803;52.356;5.310;2022-12-05T08:26:45;102397.78;;;5.27;98.41
75933;BME280;64803;52.356;5.310;2022-12-05T08:29:13;102401.28;;;5.27;98.40
75933;BME280;64803;52.356;5.310;2022-12-05T08:31:46;102399.59;;;5.26;98.44
75933;BME280;64803;52.356;5.310;2022-12-05T08:34:13;102401.28;;;5.27;98.16
75933;BME280;64803;52.356;5.310;2022-12-05T08:36:39;102403.84;;;5.29;98.77
75933;BME280;64803;52.356;5.310;2022-12-05T08:39:06;102404.72;;;5.29;98.32
75933;BME280;64803;52.356;5.310;2022-12-05T08:41:33;102331.31;;;4.88;98.38
75933;BME280;64803;52.356;5.310;2022-12-05T08:44:01;102404.72;;;5.29;98.72
75933;BME280;64803;52.356;5.310;2022-12-05T08:46:29;102399.38;;;5.29;98.73
75933;BME280;64803;52.356;5.310;2022-12-05T08:48:55;102406.41;;;5.30;98.68
75933;BME280;64803;52.356;5.310;2022-12-05T08:51:21;102402.78;;;5.31;98.57
75933;BME280;64803;52.356;5.310;2022-12-05T08:53:47;102407.91;;;5.34;98.36
75933;BME280;64803;52.356;5.310;2022-12-05T08:56:13;102407.69;;;5.37;98.30
75933;BME280;64803;52.356;5.310;2022-12-05T08:58:40;102411.09;;;5.39;97.80
75933;BME280;64803;52.356;5.310;2022-12-05T09:01:09;102414.72;;;5.38;98.38
75933;BME280;64803;52.356;5.310;2022-12-05T09:03:35;102407.69;;;5.37;98.52
75933;BME280;64803;52.356;5.310;2022-12-05T09:06:13;102411.09;;;5.39;98.31
75933;BME280;64803;52.356;5.310;2022-12-05T09:08:40;102406.94;;;5.35;98.05
75933;BME280;64803;52.356;5.310;2022-12-05T09:11:17;102412.81;;;5.40;98.30
75933;BME280;64803;52.356;5.310;2022-12-05T09:13:44;102413.75;;;5.39;98.66
75933;BME280;64803;52.356;5.310;2022-12-05T09:16:15;102414.28;;;5.44;98.12
75933;BME280;64803;52.356;5.310;2022-12-05T09:18:42;102413.13;;;5.48;97.52
75933;BME280;64803;52.356;5.310;2022-12-05T09:23:36;102417.47;;;5.49;97.69
75933;BME280;64803;52.356;5.310;2022-12-05T09:26:03;102424.53;;;5.50;97.91
75933;BME280;64803;52.356;5.310;2022-12-05T09:28:31;102437.63;;;5.53;97.99
75933;BME280;64803;52.356;5.310;2022-12-05T09:30:58;102439.44;;;5.53;97.52
75933;BME280;64803;52.356;5.310;2022-12-05T09:33:29;102438.50;;;5.54;97.60
75933;BME280;64803;52.356;5.310;2022-12-05T09:35:56;102441.16;;;5.54;97.92
75933;BME280;64803;52.356;5.310;2022-12-05T09:38:23;102437.63;;;5.53;97.99
75933;BME280;64803;52.356;5.310;2022-12-05T09:40:55;102433.16;;;5.54;97.54
75933;BME280;64803;52.356;5.310;2022-12-05T09:43:49;102438.16;;;5.58;97.35
75933;BME280;64803;52.356;5.310;2022-12-05T09:46:37;102433.91;;;5.56;97.04
75933;BME280;64803;52.356;5.310;2022-12-05T09:49:10;102444.56;;;5.56;97.38
75933;BME280;64803;52.356;5.310;2022-12-05T09:51:41;102445.41;;;5.56;97.28
75933;BME280;64803;52.356;5.310;2022-12-05T09:54:10;102457.56;;;5.60;97.15
75933;BME280;64803;52.356;5.310;2022-12-05T09:56:37;102448.59;;;5.61;97.84
75933;BME280;64803;52.356;5.310;2022-12-05T09:59:03;102452.00;;;5.63;97.42
75933;BME280;64803;52.356;5.310;2022-12-05T10:04:25;102452.66;;;5.67;96.98
75933;BME280;64803;52.356;5.310;2022-12-05T10:09:32;102444.47;;;5.70;97.01
75933;BME280;64803;52.356;5.310;2022-12-05T10:12:23;102449.69;;;5.71;97.04
75933;BME280;64803;52.356;5.310;2022-12-05T10:15:01;102453.94;;;5.74;97.09
75933;BME280;64803;52.356;5.310;2022-12-05T10:17:34;102443.38;;;5.72;96.87
75933;BME280;64803;52.356;5.310;2022-12-05T10:20:10;102445.81;;;5.75;96.61
75933;BME280;64803;52.356;5.310;2022-12-05T10:22:44;102443.78;;;5.79;96.08
75933;BME280;64803;52.356;5.310;2022-12-05T10:25:15;102439.44;;;5.78;96.56
75933;BME280;64803;52.356;5.310;2022-12-05T10:27:55;102432.28;;;5.79;96.78
75933;BME280;64803;52.356;5.310;2022-12-05T10:30:24;102436.66;;;5.80;96.34
75933;BME280;64803;52.356;5.310;2022-12-05T10:33:00;102436.66;;;5.80;96.76
75933;BME280;64803;52.356;5.310;2022-12-05T10:35:33;102427.69;;;5.81;96.09
75933;BME280;64803;52.356;5.310;2022-12-05T10:38:04;102435.41;;;5.85;96.11
75933;BME280;64803;52.356;5.310;2022-12-05T10:40:36;102429.00;;;5.88;95.55
75933;BME280;64803;52.356;5.310;2022-12-05T10:43:07;102420.28;;;5.86;94.88
75933;BME280;64803;52.356;5.310;2022-12-05T10:45:41;102374.97;;;5.60;95.50
75933;BME280;64803;52.356;5.310;2022-12-05T10:48:10;102425.91;;;5.94;95.88
75933;BME280;64803;52.356;5.310;2022-12-05T10:50:37;102423.97;;;5.96;95.13
75933;BME280;64803;52.356;5.310;2022-12-05T10:53:05;102400.63;;;5.87;95.48
75933;BME280;64803;52.356;5.310;2022-12-05T10:55:43;102425.66;;;5.97;96.18
75933;BME280;64803;52.356;5.310;2022-12-05T10:58:16;102425.78;;;5.95;96.10
75933;BME280;64803;52.356;5.310;2022-12-05T11:00:45;102430.38;;;5.93;95.26
75933;BME280;64803;52.356;5.310;2022-12-05T11:05:52;102430.25;;;5.95;95.54
75933;BME280;64803;52.356;5.310;2022-12-05T11:08:25;102431.00;;;5.97;96.84
75933;BME280;64803;52.356;5.310;2022-12-05T11:11:25;102424.22;;;5.93;95.70
75933;BME280;64803;52.356;5.310;2022-12-05T11:14:02;102417.91;;;5.94;95.95
75933;BME280;64803;52.356;5.310;2022-12-05T11:16:35;102424.28;;;5.91;96.04
75933;BME280;64803;52.356;5.310;2022-12-05T11:19:37;102424.09;;;5.94;95.81
75933;BME280;64803;52.356;5.310;2022-12-05T11:22:04;102426.66;;;5.96;96.67
75933;BME280;64803;52.356;5.310;2022-12-05T11:24:37;102419.69;;;5.93;96.52
75933;BME280;64803;52.356;5.310;2022-12-05T11:29:43;102406.19;;;5.84;96.22
75933;BME280;64803;52.356;5.310;2022-12-05T11:32:18;102421.09;;;5.99;97.46
75933;BME280;64803;52.356;5.310;2022-12-05T11:34:49;102417.66;;;5.97;96.85
75933;BME280;64803;52.356;5.310;2022-12-05T11:37:30;102421.09;;;5.99;95.14
75933;BME280;64803;52.356;5.310;2022-12-05T11:39:59;102424.50;;;6.01;93.65
75933;BME280;64803;52.356;5.310;2022-12-05T11:50:31;102426.66;;;5.96;96.76
75933;BME280;64803;52.356;5.310;2022-12-05T11:53:33;102417.47;;;6.00;96.20
75933;BME280;64803;52.356;5.310;2022-12-05T12:01:36;102416.16;;;6.05;93.59
75933;BME280;64803;52.356;5.310;2022-12-05T12:04:32;102398.25;;;5.95;94.90
75933;BME280;64803;52.356;5.310;2022-12-05T12:09:49;102421.31;;;5.96;96.35
75933;BME280;64803;52.356;5.310;2022-12-05T12:18:00;102415.34;;;5.92;96.65
75933;BME280;64803;52.356;5.310;2022-12-05T12:21:00;102411.94;;;5.90;97.08
75933;BME280;64803;52.356;5.310;2022-12-05T12:23:31;102409.38;;;5.89;97.32
75933;BME280;64803;52.356;5.310;2022-12-05T12:26:05;102421.97;;;5.87;97.65
75933;BME280;64803;52.356;5.310;2022-12-05T12:28:40;102414.19;;;5.84;97.61
75933;BME280;64803;52.356;5.310;2022-12-05T12:39:16;102413.09;;;5.86;97.01
75933;BME280;64803;52.356;5.310;2022-12-05T12:47:02;102408.38;;;5.77;99.34
75933;BME280;64803;52.356;5.310;2022-12-05T12:49:50;102405.00;;;5.75;99.83
75933;BME280;64803;52.356;5.310;2022-12-05T12:52:22;102401.91;;;5.68;99.57
75933;BME280;64803;52.356;5.310;2022-12-05T13:00:29;102392.63;;;5.61;100.00
75933;BME280;64803;52.356;5.310;2022-12-05T13:05:43;102382.94;;;5.60;100.00
75933;BME280;64803;52.356;5.310;2022-12-05T13:08:19;102384.66;;;5.61;100.00
75933;BME280;64803;52.356;5.310;2022-12-05T13:10:47;102389.78;;;5.64;100.00
75933;BME280;64803;52.356;5.310;2022-12-05T13:13:21;102391.69;;;5.62;100.00
75933;BME280;64803;52.356;5.310;2022-12-05T13:15:59;102387.22;;;5.63;100.00
75933;BME280;64803;52.356;5.310;2022-12-05T13:18:26;102341.31;;;5.34;100.00
75933;BME280;64803;52.356;5.310;2022-12-05T13:20:56;102326.31;;;5.21;100.00
75933;BME280;64803;52.356;5.310;2022-12-05T13:23:25;102392.13;;;5.56;100.00
75933;BME280;64803;52.356;5.310;2022-12-05T13:25:54;102399.47;;;5.53;100.00
75933;BME280;64803;52.356;5.310;2022-12-05T13:28:26;102389.03;;;5.50;100.00
75933;BME280;64803;52.356;5.310;2022-12-05T13:30:53;102377.63;;;5.35;100.00
75933;BME280;64803;52.356;5.310;2022-12-05T13:33:48;102392.22;;;5.55;100.00
75933;BME280;64803;52.356;5.310;2022-12-05T13:36:15;102370.72;;;5.45;100.00
75933;BME280;64803;52.356;5.310;2022-12-05T13:41:59;102388.06;;;5.51;100.00
75933;BME280;64803;52.356;5.310;2022-12-05T13:44:43;102389.38;;;5.45;100.00
75933;BME280;64803;52.356;5.310;2022-12-05T13:50:18;102405.34;;;5.45;100.00
75933;BME280;64803;52.356;5.310;2022-12-05T13:53:03;102407.28;;;5.43;100.00
75933;BME280;64803;52.356;5.310;2022-12-05T13:55:35;102403.84;;;5.41;100.00
75933;BME280;64803;52.356;5.310;2022-12-05T14:00:48;102407.69;;;5.37;100.00
75933;BME280;64803;52.356;5.310;2022-12-05T14:04:14;102402.78;;;5.31;100.00
75933;BME280;64803;52.356;5.310;2022-12-05T14:06:05;102405.25;;;5.34;100.00
75933;BME280;64803;52.356;5.310;2022-12-05T14:15:53;102408.13;;;5.31;100.00
75933;BME280;64803;52.356;5.310;2022-12-05T14:18:32;102405.56;;;5.30;100.00
75933;BME280;64803;52.356;5.310;2022-12-05T14:21:15;102402.03;;;5.29;100.00
75933;BME280;64803;52.356;5.310;2022-12-05T14:35:11;102407.38;;;5.29;100.00
75933;BME280;64803;52.356;5.310;2022-12-05T14:45:56;102415.16;;;5.32;100.00
75933;BME280;64803;52.356;5.310;2022-12-05T14:48:29;102408.13;;;5.31;100.00
75933;BME280;64803;52.356;5.310;2022-12-05T14:50:57;102409.81;;;5.32;100.00
75933;BME280;64803;52.356;5.310;2022-12-05T14:58:46;102408.88;;;5.33;100.00
75933;BME280;64803;52.356;5.310;2022-12-05T15:06:33;102426.22;;;5.39;100.00
75933;BME280;64803;52.356;5.310;2022-12-05T15:09:05;102427.06;;;5.39;100.00
75933;BME280;64803;52.356;5.310;2022-12-05T15:11:33;102321.41;;;4.77;100.00
75933;BME280;64803;52.356;5.310;2022-12-05T15:16:26;102421.97;;;5.36;100.00
75933;BME280;64803;52.356;5.310;2022-12-05T15:19:03;102430.25;;;5.32;100.00
75933;BME280;64803;52.356;5.310;2022-12-05T15:21:33;102424.84;;;5.33;100.00
75933;BME280;64803;52.356;5.310;2022-12-05T15:24:09;102416.41;;;5.27;100.00
75933;BME280;64803;52.356;5.310;2022-12-05T15:26:39;102431.13;;;5.32;100.00
75933;BME280;64803;52.356;5.310;2022-12-05T15:29:14;102438.91;;;5.35;100.00